createdAt,value
2024-05-09T00:01:47.628Z,878.25
2024-05-09T00:04:19.957Z,856.42
2024-05-09T00:06:49.455Z,844.33
2024-05-09T00:09:18.901Z,853.00
2024-05-09T00:11:48.432Z,860.85
2024-05-09T00:14:17.975Z,852.63
2024-05-09T00:16:48.389Z,859.20
2024-05-09T00:19:20.768Z,852.50
2024-05-09T00:21:51.964Z,857.67
2024-05-09T00:24:21.389Z,856.45
2024-05-09T00:26:50.940Z,860.33
2024-05-09T00:29:20.632Z,860.85
2024-05-09T00:31:50.251Z,854.78
2024-05-09T00:34:22.466Z,853.40
2024-05-09T00:36:52.160Z,862.67
2024-05-09T00:39:21.688Z,850.60
2024-05-09T00:41:51.135Z,863.43
2024-05-09T00:44:20.615Z,867.25
2024-05-09T00:46:54.524Z,857.90
2024-05-09T00:49:28.453Z,853.65
2024-05-09T00:52:00.209Z,847.10
2024-05-09T00:54:30.087Z,843.40
2024-05-09T00:56:59.899Z,857.83
2024-05-09T00:59:31.177Z,848.15
2024-05-09T01:02:02.429Z,852.72
2024-05-09T01:04:34.773Z,839.08
2024-05-09T01:07:04.291Z,840.67
2024-05-09T01:09:33.794Z,834.95
2024-05-09T01:12:03.421Z,825.55
2024-05-09T01:14:33.045Z,845.53
2024-05-09T01:17:02.549Z,831.65
2024-05-09T01:19:34.712Z,838.58
2024-05-09T01:22:04.553Z,829.45
2024-05-09T01:24:36.709Z,834.13
2024-05-09T01:27:06.582Z,832.83
2024-05-09T01:29:36.137Z,827.80
2024-05-09T01:32:05.843Z,864.50
2024-05-09T01:34:35.371Z,887.97
2024-05-09T01:37:04.819Z,808.88
2024-05-09T01:39:37.013Z,807.53
2024-05-09T01:42:06.960Z,817.53
2024-05-09T01:44:36.409Z,807.15
2024-05-09T01:47:06.115Z,811.20
2024-05-09T01:49:40.617Z,803.35
2024-05-09T01:52:10.134Z,804.22
2024-05-09T01:54:42.177Z,798.90
2024-05-09T01:57:11.633Z,793.33
2024-05-09T01:59:41.112Z,792.70
2024-05-09T02:02:10.813Z,788.53
2024-05-09T02:04:40.610Z,787.70
2024-05-09T02:07:10.723Z,788.50
2024-05-09T02:09:43.214Z,777.58
2024-05-09T02:12:16.473Z,773.92
2024-05-09T02:14:46.089Z,774.38
2024-05-09T02:17:15.664Z,776.17
2024-05-09T02:19:45.161Z,773.95
2024-05-09T02:22:14.619Z,776.55
2024-05-09T02:24:46.658Z,774.45
2024-05-09T02:27:16.153Z,773.45
2024-05-09T02:29:47.449Z,770.20
2024-05-09T02:32:17.033Z,771.58
2024-05-09T02:34:46.543Z,773.42
2024-05-09T02:37:13.473Z,772.22
2024-05-09T02:39:42.900Z,773.23
2024-05-09T02:42:12.343Z,773.38
2024-05-09T02:44:41.770Z,772.75
2024-05-09T02:47:08.869Z,773.50
2024-05-09T02:49:38.429Z,774.67
2024-05-09T02:52:05.699Z,772.42
2024-05-09T02:54:35.201Z,770.57
2024-05-09T02:57:02.197Z,769.17
2024-05-09T02:59:34.253Z,772.08
2024-05-09T03:02:01.251Z,772.85
2024-05-09T03:04:30.981Z,770.95
2024-05-09T03:06:58.114Z,774.28
2024-05-09T03:09:28.008Z,773.88
2024-05-09T03:11:57.837Z,771.20
2024-05-09T03:14:24.823Z,767.20
2024-05-09T03:16:56.996Z,768.38
2024-05-09T03:19:23.988Z,766.08
2024-05-09T03:21:53.450Z,765.27
2024-05-09T03:24:20.357Z,766.42
2024-05-09T03:26:49.780Z,767.85
2024-05-09T03:29:16.700Z,768.47
2024-05-09T03:31:46.268Z,764.75
2024-05-09T03:34:15.758Z,759.17
2024-05-09T03:36:45.606Z,764.03
2024-05-09T03:39:15.053Z,767.55
2024-05-09T03:41:44.668Z,764.92
2024-05-09T03:44:14.296Z,762.10
2024-05-09T03:46:41.536Z,761.60
2024-05-09T03:49:11.421Z,764.92
2024-05-09T03:51:40.954Z,765.58
2024-05-09T03:54:10.648Z,760.40
2024-05-09T03:56:38.059Z,760.57
2024-05-09T03:59:07.620Z,762.33
2024-05-09T04:01:34.683Z,762.60
2024-05-09T04:04:04.308Z,767.20
2024-05-09T04:06:31.145Z,761.20
2024-05-09T04:09:03.749Z,765.50
2024-05-09T04:11:30.688Z,763.57
2024-05-09T04:14:00.244Z,763.90
2024-05-09T04:16:27.083Z,765.35
2024-05-09T04:18:56.741Z,762.08
2024-05-09T04:21:23.620Z,760.78
2024-05-09T04:23:53.059Z,762.65
2024-05-09T04:26:22.627Z,762.58
2024-05-09T04:28:52.127Z,763.55
2024-05-09T04:31:20.824Z,758.17
2024-05-09T04:33:50.371Z,761.47
2024-05-09T04:36:17.304Z,763.55
2024-05-09T04:38:46.769Z,761.13
2024-05-09T04:41:14.269Z,761.60
2024-05-09T04:43:46.363Z,762.60
2024-05-09T04:46:14.647Z,765.47
2024-05-09T04:48:44.249Z,763.97
2024-05-09T04:51:11.205Z,763.28
2024-05-09T04:53:40.842Z,761.15
2024-05-09T04:56:08.756Z,761.08
2024-05-09T04:58:39.984Z,762.58
2024-05-09T05:01:09.471Z,764.92
2024-05-09T05:03:39.281Z,762.97
2024-05-09T05:06:06.338Z,766.20
2024-05-09T05:08:36.954Z,766.10
2024-05-09T05:11:04.209Z,768.40
2024-05-09T05:13:33.981Z,768.75
2024-05-09T05:16:00.837Z,770.20
2024-05-09T05:18:33.470Z,771.95
2024-05-09T05:21:00.381Z,791.95
2024-05-09T05:23:29.999Z,771.63
2024-05-09T05:25:57.160Z,773.28
2024-05-09T05:28:26.759Z,774.53
2024-05-09T05:30:53.666Z,772.42
2024-05-09T05:33:23.735Z,776.92
2024-05-09T05:35:53.285Z,779.05
2024-05-09T05:38:26.109Z,786.88
2024-05-09T05:40:55.181Z,781.67
2024-05-09T05:43:24.674Z,784.58
2024-05-09T05:45:51.539Z,793.47
2024-05-09T05:48:21.354Z,801.90
2024-05-09T05:50:48.440Z,794.43
2024-05-09T05:53:20.612Z,793.03
2024-05-09T05:55:47.541Z,802.40
2024-05-09T05:58:17.134Z,808.97
2024-05-09T06:00:44.443Z,817.25
2024-05-09T06:03:14.824Z,816.05
2024-05-09T06:05:43.982Z,827.72
2024-05-09T06:08:14.172Z,832.30
2024-05-09T06:10:43.963Z,845.30
2024-05-09T06:13:15.515Z,844.83
2024-05-09T06:15:43.453Z,849.70
2024-05-09T06:18:13.732Z,860.70
2024-05-09T06:20:43.036Z,866.15
2024-05-09T06:23:13.639Z,861.37
2024-05-09T06:25:43.993Z,867.25
2024-05-09T06:28:13.597Z,876.42
2024-05-09T06:30:42.469Z,896.88
2024-05-09T06:33:15.824Z,891.38
2024-05-09T06:35:44.087Z,903.78
2024-05-09T06:38:13.732Z,901.50
2024-05-09T06:40:44.297Z,913.13
2024-05-09T06:43:16.694Z,907.13
2024-05-09T06:45:46.775Z,923.63
2024-05-09T06:48:16.870Z,921.30
2024-05-09T06:50:44.068Z,927.33
2024-05-09T06:53:16.064Z,919.33
2024-05-09T06:55:45.786Z,932.90
2024-05-09T06:58:15.466Z,936.20
2024-05-09T07:00:42.669Z,946.85
2024-05-09T07:03:14.777Z,949.77
2024-05-09T07:05:44.350Z,954.92
2024-05-09T07:08:14.194Z,947.63
2024-05-09T07:10:41.395Z,963.97
2024-05-09T07:13:15.452Z,964.75
2024-05-09T07:15:42.630Z,962.20
2024-05-09T07:18:14.064Z,972.40
2024-05-09T07:20:41.746Z,970.53
2024-05-09T07:23:12.169Z,969.00
2024-05-09T07:25:40.166Z,975.38
2024-05-09T07:28:16.877Z,985.65
2024-05-09T07:30:43.981Z,975.50
2024-05-09T07:33:19.373Z,982.55
2024-05-09T07:35:47.143Z,986.08
2024-05-09T07:38:16.838Z,992.55
2024-05-09T07:40:46.492Z,1000.30
2024-05-09T07:43:16.509Z,1005.55
2024-05-09T07:45:53.574Z,1010.30
2024-05-09T07:52:38.740Z,1006.90
2024-05-09T07:53:46.209Z,1000.63
2024-05-09T07:56:21.642Z,1052.93
2024-05-09T07:58:53.161Z,1009.08
2024-05-09T08:01:24.634Z,1017.72
2024-05-09T08:03:54.536Z,1026.57
2024-05-09T08:06:21.814Z,1054.30
2024-05-09T08:08:51.330Z,728.10
2024-05-09T08:11:19.594Z,965.15
2024-05-09T08:13:49.486Z,983.72
2024-05-09T08:16:19.279Z,987.35
2024-05-09T08:18:49.069Z,989.55
2024-05-09T08:21:15.973Z,984.42
2024-05-09T08:23:45.403Z,991.75
2024-05-09T08:26:12.502Z,990.50
2024-05-09T08:28:42.006Z,994.17
2024-05-09T08:31:10.340Z,997.97
2024-05-09T08:33:46.541Z,997.78
2024-05-09T08:36:14.740Z,993.15
2024-05-09T08:38:44.195Z,1008.90
2024-05-09T08:41:14.173Z,1005.97
2024-05-09T08:43:44.046Z,1010.95
2024-05-09T08:46:13.092Z,1011.53
2024-05-09T08:48:46.605Z,1017.28
2024-05-09T08:51:14.243Z,1017.07
2024-05-09T08:53:43.811Z,1025.70
2024-05-09T08:56:11.845Z,1026.70
2024-05-09T08:58:41.775Z,1023.38
2024-05-09T09:01:10.222Z,1025.43
2024-05-09T09:03:40.858Z,1034.78
2024-05-09T09:06:14.484Z,1048.50
2024-05-09T09:08:44.132Z,1044.65
2024-05-09T09:11:11.217Z,1055.75
2024-05-09T09:13:41.067Z,1053.68
2024-05-09T09:16:08.321Z,1047.72
2024-05-09T09:18:38.015Z,1049.80
2024-05-09T09:21:09.821Z,1056.67
2024-05-09T09:23:42.177Z,1057.82
2024-05-09T09:26:09.104Z,1055.50
2024-05-09T09:28:40.615Z,1059.28
2024-05-09T09:31:07.521Z,1066.32
2024-05-09T09:33:37.794Z,1073.20
2024-05-09T09:36:07.518Z,1064.93
2024-05-09T09:38:42.391Z,1063.65
2024-05-09T09:41:10.835Z,1073.38
2024-05-09T09:43:41.702Z,1080.78
2024-05-09T09:46:12.435Z,1084.15
2024-05-09T09:48:42.809Z,1088.72
2024-05-09T09:51:10.060Z,1084.50
2024-05-09T09:53:42.495Z,1085.87
2024-05-09T09:56:10.503Z,1092.68
2024-05-09T09:58:41.422Z,1092.90
2024-05-09T10:01:08.482Z,1095.82
2024-05-09T10:03:38.588Z,1104.60
2024-05-09T10:06:07.688Z,1109.25
2024-05-09T10:08:38.747Z,1097.35
2024-05-09T10:11:08.448Z,1094.72
2024-05-09T10:13:38.970Z,1093.43
2024-05-09T10:16:10.917Z,1094.75
2024-05-09T10:18:42.223Z,1095.77
2024-05-09T10:21:15.624Z,1095.95
2024-05-09T10:23:47.261Z,1098.90
2024-05-09T10:26:16.718Z,1108.70
2024-05-09T10:28:46.823Z,1123.30
2024-05-09T10:31:16.370Z,1121.18
2024-05-09T10:33:51.921Z,1123.70
2024-05-09T10:36:20.867Z,1129.78
2024-05-09T10:38:51.444Z,1134.35
2024-05-09T10:41:22.684Z,1138.73
2024-05-09T10:43:53.147Z,1141.93
2024-05-09T10:46:20.439Z,1147.60
2024-05-09T10:48:52.406Z,1155.10
2024-05-09T10:51:19.497Z,1167.45
2024-05-09T10:53:52.394Z,1170.68
2024-05-09T10:56:21.986Z,1185.82
2024-05-09T10:58:54.711Z,1190.70
2024-05-09T11:01:21.985Z,1194.47
2024-05-09T11:03:52.583Z,1197.10
2024-05-09T11:06:19.513Z,1206.07
2024-05-09T11:08:49.788Z,1217.28
2024-05-09T11:11:17.168Z,1222.95
2024-05-09T11:13:49.285Z,1229.40
2024-05-09T11:16:19.401Z,1230.78
2024-05-09T11:18:56.435Z,1240.05
2024-05-09T11:21:24.369Z,1240.75
2024-05-09T11:23:54.239Z,1240.43
2024-05-09T11:26:22.025Z,1246.13
2024-05-09T11:28:54.703Z,1248.53
2024-05-09T11:31:21.884Z,1237.32
2024-05-09T11:33:51.930Z,1242.15
2024-05-09T11:36:18.871Z,1252.80
2024-05-09T11:38:48.373Z,1250.10
2024-05-09T11:41:17.425Z,1245.38
2024-05-09T11:43:47.048Z,1232.72
2024-05-09T11:46:16.687Z,1226.43
2024-05-09T11:48:46.490Z,1223.68
2024-05-09T11:51:13.438Z,1215.60
2024-05-09T11:53:42.885Z,1225.15
2024-05-09T11:56:11.851Z,1230.95
2024-05-09T11:58:41.600Z,1248.00
2024-05-09T12:01:08.582Z,1261.05
2024-05-09T12:03:41.032Z,1260.68
2024-05-09T12:06:10.934Z,1270.87
2024-05-09T12:08:38.382Z,1276.32
2024-05-09T12:11:08.028Z,1277.93
2024-05-09T12:13:35.002Z,1279.72
2024-05-09T12:16:04.566Z,1281.60
2024-05-09T12:18:33.798Z,1294.45
2024-05-09T12:21:06.190Z,1296.75
2024-05-09T12:23:33.087Z,1305.47
2024-05-09T12:26:02.963Z,1312.23
2024-05-09T12:28:29.935Z,1318.95
2024-05-09T12:30:59.483Z,1305.95
2024-05-09T12:33:26.464Z,1293.80
2024-05-09T12:35:55.983Z,1283.18
2024-05-09T12:38:25.435Z,1272.35
2024-05-09T12:40:55.166Z,1280.22
2024-05-09T12:43:22.284Z,1281.70
2024-05-09T12:45:52.082Z,1283.80
2024-05-09T12:48:19.168Z,1282.85
2024-05-09T12:50:48.859Z,1273.70
2024-05-09T12:53:15.908Z,1278.17
2024-05-09T12:55:53.986Z,1292.55
2024-05-09T12:58:26.620Z,1298.77
2024-05-09T13:00:56.275Z,1306.72
2024-05-09T13:03:23.390Z,1310.00
2024-05-09T13:05:53.080Z,1295.40
2024-05-09T13:08:20.265Z,1283.40
2024-05-09T13:10:52.735Z,1262.65
2024-05-09T13:13:19.847Z,1246.10
2024-05-09T13:15:49.602Z,1235.75
2024-05-09T13:18:16.699Z,1227.10
2024-05-09T13:20:46.761Z,1232.20
2024-05-09T13:23:13.734Z,1243.47
2024-05-09T13:25:43.257Z,1251.22
2024-05-09T13:28:12.830Z,1248.88
2024-05-09T13:30:42.750Z,1247.00
2024-05-09T13:33:11.439Z,1247.53
2024-05-09T13:35:46.673Z,1240.93
2024-05-09T13:38:16.754Z,1237.28
2024-05-09T13:40:46.418Z,1244.35
2024-05-09T13:43:17.173Z,1259.03
2024-05-09T13:45:46.932Z,1260.65
2024-05-09T13:48:14.263Z,1274.47
2024-05-09T13:50:44.531Z,1279.30
2024-05-09T13:53:11.755Z,1283.20
2024-05-09T13:55:41.407Z,1264.47
2024-05-09T13:58:09.337Z,1255.03
2024-05-09T14:00:47.069Z,1241.13
2024-05-09T14:03:18.024Z,1244.05
2024-05-09T14:05:50.117Z,1251.28
2024-05-09T14:08:19.684Z,1252.83
2024-05-09T14:10:49.796Z,1265.38
2024-05-09T14:13:17.284Z,1269.85
2024-05-09T14:15:49.733Z,1272.00
2024-05-09T14:18:16.872Z,1271.30
2024-05-09T14:20:46.576Z,1258.53
2024-05-09T14:23:14.229Z,1240.97
2024-05-09T14:25:44.999Z,1233.32
2024-05-09T14:28:13.432Z,1233.85
2024-05-09T14:30:43.379Z,1239.72
2024-05-09T14:33:12.942Z,1241.07
2024-05-09T14:35:42.470Z,1243.95
2024-05-09T14:38:10.054Z,1246.70
2024-05-09T14:40:43.577Z,1240.72
2024-05-09T14:43:11.517Z,1247.53
2024-05-09T14:45:41.321Z,1251.43
2024-05-09T14:48:09.333Z,1255.93
2024-05-09T14:50:41.845Z,1256.20
2024-05-09T14:53:10.490Z,1255.57
2024-05-09T14:55:42.760Z,1253.22
2024-05-09T14:58:11.431Z,1252.53
2024-05-09T15:00:47.740Z,1249.75
2024-05-09T15:03:17.268Z,1247.60
2024-05-09T15:05:49.687Z,1251.20
2024-05-09T15:08:17.829Z,1248.15
2024-05-09T15:10:49.978Z,1250.22
2024-05-09T15:13:17.589Z,1251.20
2024-05-09T15:15:47.177Z,1251.07
2024-05-09T15:18:14.692Z,1249.13
2024-05-09T15:20:45.932Z,1250.77
2024-05-09T15:23:16.001Z,1246.53
2024-05-09T15:25:46.321Z,1245.55
2024-05-09T15:28:13.326Z,1246.43
2024-05-09T15:30:45.959Z,1239.47
2024-05-09T15:33:13.778Z,1243.88
2024-05-09T15:35:44.394Z,1241.00
2024-05-09T15:38:11.414Z,1235.55
2024-05-09T15:40:43.816Z,1234.43
2024-05-09T15:43:11.678Z,1237.43
2024-05-09T15:45:41.902Z,1233.93
2024-05-09T15:48:10.559Z,1233.72
2024-05-09T15:50:42.288Z,1237.00
2024-05-09T15:53:11.134Z,1237.13
2024-05-09T15:55:44.350Z,1228.80
2024-05-09T15:58:12.276Z,1228.65
2024-05-09T16:00:44.037Z,1227.25
2024-05-09T16:03:14.339Z,1229.40
2024-05-09T16:05:46.931Z,1228.70
2024-05-09T16:08:15.582Z,1231.37
2024-05-09T16:10:49.541Z,1226.18
2024-05-09T16:13:17.514Z,1228.80
2024-05-09T16:15:47.757Z,1222.07
2024-05-09T16:18:15.083Z,1224.30
2024-05-09T16:20:46.455Z,1223.70
2024-05-09T16:23:15.467Z,1225.27
2024-05-09T16:25:47.794Z,1225.65
2024-05-09T16:28:18.957Z,1224.38
2024-05-09T16:30:48.680Z,1223.70
2024-05-09T16:33:19.056Z,1215.43
2024-05-09T16:35:49.063Z,1214.97
2024-05-09T16:38:16.172Z,1215.00
2024-05-09T16:40:45.873Z,1213.07
2024-05-09T16:43:13.562Z,1210.25
2024-05-09T16:45:46.605Z,1200.60
2024-05-09T16:48:14.162Z,1196.10
2024-05-09T16:50:44.114Z,1191.72
2024-05-09T16:53:11.236Z,1194.47
2024-05-09T16:55:40.695Z,1188.13
2024-05-09T16:58:08.344Z,1192.70
2024-05-09T17:00:42.249Z,1184.00
2024-05-09T17:03:15.200Z,1187.87
2024-05-09T17:05:47.050Z,1186.17
2024-05-09T17:08:16.665Z,1186.13
2024-05-09T17:10:48.341Z,1183.78
2024-05-09T17:13:18.537Z,1182.82
2024-05-09T17:15:48.445Z,1174.05
2024-05-09T17:18:21.059Z,1174.47
2024-05-09T17:20:51.533Z,1171.75
2024-05-09T17:23:18.513Z,1174.65
2024-05-09T17:25:48.017Z,1176.78
2024-05-09T17:28:15.120Z,1170.40
2024-05-09T17:30:45.499Z,1172.03
2024-05-09T17:33:13.253Z,1167.80
2024-05-09T17:35:46.270Z,1163.28
2024-05-09T17:38:13.291Z,1165.75
2024-05-09T17:40:42.792Z,1162.80
2024-05-09T17:43:10.759Z,1158.38
2024-05-09T17:45:41.624Z,1155.00
2024-05-09T17:48:10.950Z,1153.55
2024-05-09T17:50:42.055Z,1151.28
2024-05-09T17:53:11.855Z,1149.40
2024-05-09T17:55:42.651Z,1145.53
2024-05-09T17:58:10.378Z,1143.22
2024-05-09T18:00:42.163Z,1136.43
2024-05-09T18:03:12.051Z,1140.15
2024-05-09T18:05:44.108Z,1132.97
2024-05-09T18:08:14.583Z,1128.85
2024-05-09T18:10:44.379Z,1128.03
2024-05-09T18:13:12.762Z,1134.45
2024-05-09T18:15:42.698Z,1124.70
2024-05-09T18:18:11.657Z,1123.82
2024-05-09T18:20:44.804Z,1126.78
2024-05-09T18:23:17.996Z,1117.75
2024-05-09T18:25:48.666Z,1118.43
2024-05-09T18:28:16.455Z,1119.20
2024-05-09T18:30:46.671Z,1116.72
2024-05-09T18:33:14.057Z,1116.40
2024-05-09T18:35:46.682Z,1113.00
2024-05-09T18:38:16.297Z,1115.18
2024-05-09T18:40:48.541Z,1111.43
2024-05-09T18:43:16.779Z,1115.15
2024-05-09T18:45:46.719Z,1111.78
2024-05-09T18:48:13.807Z,1107.90
2024-05-09T18:50:43.493Z,1101.47
2024-05-09T18:53:12.236Z,1100.43
2024-05-09T18:55:45.462Z,1102.50
2024-05-09T18:58:12.606Z,1097.95
2024-05-09T19:00:45.317Z,1091.03
2024-05-09T19:03:14.933Z,1085.63
2024-05-09T19:05:46.263Z,1083.85
2024-05-09T19:08:14.489Z,1083.22
2024-05-09T19:10:47.888Z,1081.82
2024-05-09T19:13:15.290Z,1075.22
2024-05-09T19:15:45.179Z,1079.32
2024-05-09T19:18:12.874Z,1075.85
2024-05-09T19:20:42.981Z,1077.68
2024-05-09T19:23:11.476Z,1065.55
2024-05-09T19:25:41.232Z,1066.50
2024-05-09T19:28:10.926Z,1067.40
2024-05-09T19:30:42.442Z,1061.57
2024-05-09T19:33:12.270Z,1059.72
2024-05-09T19:35:43.111Z,1060.38
2024-05-09T19:38:10.570Z,1053.88
2024-05-09T19:40:40.232Z,1056.90
2024-05-09T19:43:07.481Z,1056.88
2024-05-09T19:45:39.767Z,1055.40
2024-05-09T19:48:07.867Z,1048.25
2024-05-09T19:50:42.856Z,1051.17
2024-05-09T19:53:12.206Z,1045.18
2024-05-09T19:55:41.936Z,1035.82
2024-05-09T19:58:09.487Z,1037.50
2024-05-09T20:00:43.528Z,1034.75
2024-05-09T20:03:15.200Z,1027.97
2024-05-09T20:05:44.689Z,1024.25
2024-05-09T20:08:14.508Z,1022.60
2024-05-09T20:10:41.478Z,1012.70
2024-05-09T20:13:11.107Z,1021.78
2024-05-09T20:15:40.708Z,1017.55
2024-05-09T20:18:10.313Z,1011.67
2024-05-09T20:20:41.326Z,1012.75
2024-05-09T20:23:13.399Z,1014.43
2024-05-09T20:25:40.449Z,1006.42
2024-05-09T20:28:10.529Z,1004.90
2024-05-09T20:30:40.452Z,1002.58
2024-05-09T20:33:10.556Z,1002.55
2024-05-09T20:35:37.766Z,990.70
2024-05-09T20:38:07.642Z,981.53
2024-05-09T20:40:37.809Z,989.65
2024-05-09T20:43:09.900Z,991.78
2024-05-09T20:45:37.370Z,986.58
2024-05-09T20:48:11.400Z,988.63
2024-05-09T20:50:41.391Z,984.67
2024-05-09T20:53:14.460Z,982.15
2024-05-09T20:55:42.162Z,978.72
2024-05-09T20:58:12.192Z,981.83
2024-05-09T21:00:42.877Z,979.05
2024-05-09T21:03:18.026Z,971.15
2024-05-09T21:05:45.712Z,969.35
2024-05-09T21:08:15.541Z,963.63
2024-05-09T21:10:42.523Z,972.80
2024-05-09T21:13:12.083Z,954.25
2024-05-09T21:15:39.059Z,957.97
2024-05-09T21:18:08.691Z,951.83
2024-05-09T21:20:38.378Z,951.37
2024-05-09T21:23:08.136Z,944.00
2024-05-09T21:25:35.038Z,953.38
2024-05-09T21:28:04.832Z,948.83
2024-05-09T21:30:40.408Z,951.20
2024-05-09T21:33:14.063Z,945.15
2024-05-09T21:35:44.999Z,949.00
2024-05-09T21:38:16.155Z,949.20
2024-05-09T21:40:43.694Z,942.45
2024-05-09T21:43:14.291Z,944.08
2024-05-09T21:45:41.564Z,936.00
2024-05-09T21:48:11.867Z,925.85
2024-05-09T21:50:41.494Z,931.20
2024-05-09T21:53:14.682Z,927.05
2024-05-09T21:55:41.697Z,913.95
2024-05-09T21:58:11.376Z,922.65
2024-05-09T22:00:40.085Z,920.05
2024-05-09T22:03:11.310Z,914.23
2024-05-09T22:05:41.921Z,914.85
2024-05-09T22:08:14.426Z,921.15
2024-05-09T22:10:41.629Z,914.58
2024-05-09T22:13:11.295Z,920.57
2024-05-09T22:15:40.455Z,903.15
2024-05-09T22:18:11.601Z,911.33
2024-05-09T22:20:44.642Z,911.60
2024-05-09T22:23:18.199Z,913.88
2024-05-09T22:25:45.124Z,892.97
2024-05-09T22:28:17.216Z,892.45
2024-05-09T22:30:46.002Z,891.03
2024-05-09T22:33:16.227Z,885.13
2024-05-09T22:35:43.345Z,885.28
2024-05-09T22:38:12.858Z,885.60
2024-05-09T22:40:47.842Z,890.95
2024-05-09T22:43:23.148Z,876.50
2024-05-09T22:45:51.944Z,885.70
2024-05-09T22:48:23.389Z,880.17
2024-05-09T22:50:50.601Z,870.85
2024-05-09T22:53:21.148Z,873.60
2024-05-09T22:55:50.663Z,864.95
2024-05-09T22:58:20.794Z,860.47
2024-05-09T23:00:47.930Z,868.17
2024-05-09T23:03:21.225Z,856.72
2024-05-09T23:05:48.629Z,872.20
2024-05-09T23:08:18.123Z,847.05
2024-05-09T23:10:45.036Z,860.88
2024-05-09T23:13:17.230Z,847.85
2024-05-09T23:15:44.173Z,850.45
2024-05-09T23:18:13.759Z,850.75
2024-05-09T23:20:40.893Z,840.63
2024-05-09T23:23:11.909Z,843.50
2024-05-09T23:25:41.428Z,841.22
2024-05-09T23:28:11.412Z,835.22
2024-05-09T23:30:42.115Z,837.38
2024-05-09T23:33:14.087Z,824.50
2024-05-09T23:35:43.533Z,828.15
2024-05-09T23:38:13.460Z,829.00
2024-05-09T23:40:41.964Z,823.92
2024-05-09T23:43:13.299Z,825.72
2024-05-09T23:45:43.457Z,817.38
2024-05-09T23:48:13.360Z,820.83
2024-05-09T23:50:41.164Z,822.28
2024-05-09T23:53:11.421Z,826.45
2024-05-09T23:55:39.185Z,825.05
2024-05-09T23:58:09.533Z,811.10
